createdAt,value
2023-05-16T00:02:08.960Z,19.05
2023-05-16T00:04:37.477Z,19.40
2023-05-16T00:07:06.809Z,21.92
2023-05-16T00:09:34.608Z,18.23
2023-05-16T00:12:02.514Z,15.25
2023-05-16T00:14:30.315Z,17.45
2023-05-16T00:16:59.287Z,20.60
2023-05-16T00:19:28.036Z,14.50
2023-05-16T00:21:55.796Z,15.15
2023-05-16T00:24:25.130Z,30.73
2023-05-16T00:26:52.894Z,12.05
2023-05-16T00:29:20.652Z,12.95
2023-05-16T00:31:48.453Z,16.10
2023-05-16T00:34:16.430Z,17.85
2023-05-16T00:36:44.545Z,16.75
2023-05-16T00:39:12.821Z,18.65
2023-05-16T00:41:42.149Z,20.65
2023-05-16T00:44:09.946Z,13.48
2023-05-16T00:46:37.820Z,20.52
2023-05-16T00:49:06.248Z,30.45
2023-05-16T00:51:34.196Z,13.70
2023-05-16T00:54:02.185Z,17.38
2023-05-16T00:56:30.168Z,17.13
2023-05-16T00:58:59.937Z,15.00
2023-05-16T01:01:29.728Z,18.20
2023-05-16T01:03:57.930Z,15.30
2023-05-16T01:06:25.955Z,18.77
2023-05-16T01:08:53.717Z,10.98
2023-05-16T01:11:28.323Z,21.23
2023-05-16T01:14:08.619Z,13.75
2023-05-16T01:16:41.611Z,10.13
2023-05-16T01:19:20.684Z,21.02
2023-05-16T01:21:51.372Z,20.98
2023-05-16T01:24:28.487Z,22.02
2023-05-16T01:26:59.644Z,18.85
2023-05-16T01:29:27.734Z,6.97
2023-05-16T01:31:55.621Z,10.55
2023-05-16T01:34:24.509Z,18.65
2023-05-16T01:37:00.627Z,11.13
2023-05-16T01:39:34.845Z,17.23
2023-05-16T01:42:07.226Z,19.13
2023-05-16T01:44:39.945Z,14.32
2023-05-16T01:47:13.034Z,15.70
2023-05-16T01:49:47.658Z,12.35
2023-05-16T01:52:20.613Z,12.10
2023-05-16T01:54:50.429Z,18.87
2023-05-16T01:57:21.534Z,10.23
2023-05-16T01:59:50.105Z,12.48
2023-05-16T02:02:19.542Z,20.77
2023-05-16T02:04:47.810Z,18.65
2023-05-16T02:07:16.175Z,11.45
2023-05-16T02:09:43.936Z,20.80
2023-05-16T02:12:11.723Z,15.80
2023-05-16T02:14:40.893Z,15.07
2023-05-16T02:17:09.089Z,17.50
2023-05-16T02:19:36.975Z,13.85
2023-05-16T02:22:04.838Z,17.42
2023-05-16T02:24:32.608Z,19.38
2023-05-16T02:27:00.434Z,17.63
2023-05-16T02:29:28.197Z,14.05
2023-05-16T02:31:57.364Z,15.43
2023-05-16T02:34:25.195Z,17.30
2023-05-16T02:36:52.940Z,8.77
2023-05-16T02:39:20.687Z,16.30
2023-05-16T02:41:48.494Z,13.10
2023-05-16T02:44:16.277Z,17.73
2023-05-16T02:46:44.294Z,13.88
2023-05-16T02:49:13.488Z,13.75
2023-05-16T02:51:41.277Z,17.40
2023-05-16T02:54:09.955Z,13.88
2023-05-16T02:56:37.981Z,13.35
2023-05-16T02:59:06.374Z,17.17
2023-05-16T03:01:34.819Z,16.00
2023-05-16T03:04:02.891Z,13.88
2023-05-16T03:06:33.139Z,12.95
2023-05-16T03:09:01.335Z,16.00
2023-05-16T03:11:29.170Z,13.35
2023-05-16T03:13:57.098Z,10.93
2023-05-16T03:16:24.899Z,16.27
2023-05-16T03:18:52.926Z,9.85
2023-05-16T03:21:20.685Z,19.95
2023-05-16T03:23:50.255Z,12.43
2023-05-16T03:26:18.097Z,15.32
2023-05-16T03:28:46.103Z,14.98
2023-05-16T03:31:13.912Z,14.85
2023-05-16T03:33:41.994Z,14.55
2023-05-16T03:36:10.617Z,13.85
2023-05-16T03:38:38.484Z,13.27
2023-05-16T03:41:07.681Z,16.00
2023-05-16T03:43:35.427Z,12.82
2023-05-16T03:46:03.232Z,7.38
2023-05-16T03:48:31.039Z,21.30
2023-05-16T03:50:58.799Z,21.48
2023-05-16T03:53:26.716Z,15.82
2023-05-16T03:55:54.535Z,13.35
2023-05-16T03:58:23.723Z,13.90
2023-05-16T04:00:51.646Z,16.02
2023-05-16T04:03:19.477Z,18.63
2023-05-16T04:05:47.405Z,12.00
2023-05-16T04:08:15.611Z,11.70
2023-05-16T04:10:43.349Z,15.25
2023-05-16T04:13:11.136Z,18.58
2023-05-16T04:15:40.553Z,13.88
2023-05-16T04:18:08.422Z,12.60
2023-05-16T04:20:36.740Z,14.68
2023-05-16T04:23:04.672Z,17.83
2023-05-16T04:25:32.750Z,10.80
2023-05-16T04:28:02.187Z,13.50
2023-05-16T04:30:29.957Z,21.08
2023-05-16T04:32:59.723Z,9.57
2023-05-16T04:35:28.350Z,9.57
2023-05-16T04:37:56.321Z,14.50
2023-05-16T04:40:25.192Z,23.10
2023-05-16T04:42:54.588Z,12.57
2023-05-16T04:45:22.497Z,19.38
2023-05-16T04:47:51.094Z,15.98
2023-05-16T04:50:20.618Z,11.40
2023-05-16T04:52:48.350Z,11.63
2023-05-16T04:55:16.527Z,11.68
2023-05-16T04:57:44.574Z,14.18
2023-05-16T05:00:13.720Z,32.22
2023-05-16T05:02:41.792Z,18.83
2023-05-16T05:05:10.608Z,13.13
2023-05-16T05:07:40.958Z,16.05
2023-05-16T05:10:09.673Z,13.20
2023-05-16T05:12:37.438Z,14.90
2023-05-16T05:15:06.519Z,10.70
2023-05-16T05:17:34.359Z,17.00
2023-05-16T05:20:03.293Z,11.93
2023-05-16T05:22:31.264Z,13.27
2023-05-16T05:25:00.386Z,12.63
2023-05-16T05:27:28.739Z,8.00
2023-05-16T05:29:56.490Z,11.10
2023-05-16T05:32:24.334Z,17.42
2023-05-16T05:34:52.636Z,14.80
2023-05-16T05:37:20.550Z,23.75
2023-05-16T05:39:48.542Z,15.18
2023-05-16T05:42:17.699Z,12.95
2023-05-16T05:44:45.750Z,12.02
2023-05-16T05:47:13.866Z,10.25
2023-05-16T05:49:42.003Z,9.45
2023-05-16T05:52:09.825Z,11.02
2023-05-16T05:54:37.695Z,12.05
2023-05-16T05:57:05.792Z,17.00
2023-05-16T05:59:35.190Z,14.65
2023-05-16T06:02:03.362Z,11.10
2023-05-16T06:04:31.173Z,9.05
2023-05-16T06:06:59.199Z,12.68
2023-05-16T06:09:27.107Z,11.02
2023-05-16T06:11:54.948Z,11.35
2023-05-16T06:14:22.913Z,12.57
2023-05-16T06:16:52.098Z,11.93
2023-05-16T06:19:20.045Z,15.07
2023-05-16T06:21:48.046Z,9.60
2023-05-16T06:24:16.127Z,11.70
2023-05-16T06:26:46.218Z,13.93
2023-05-16T06:29:14.004Z,15.43
2023-05-16T06:31:41.832Z,13.98
2023-05-16T06:34:11.280Z,11.98
2023-05-16T06:36:39.183Z,12.23
2023-05-16T06:39:07.567Z,10.13
2023-05-16T06:41:35.350Z,11.02
2023-05-16T06:44:03.219Z,12.77
2023-05-16T06:46:31.220Z,9.00
2023-05-16T06:48:59.129Z,12.15
2023-05-16T06:51:28.354Z,10.95
2023-05-16T06:53:56.325Z,9.48
2023-05-16T06:56:24.132Z,11.88
2023-05-16T06:58:51.983Z,19.98
2023-05-16T07:01:19.903Z,6.63
2023-05-16T07:03:48.001Z,10.40
2023-05-16T07:06:15.987Z,8.05
2023-05-16T07:08:45.229Z,10.25
2023-05-16T07:11:13.085Z,5.72
2023-05-16T07:13:40.997Z,11.60
2023-05-16T07:16:08.946Z,8.82
2023-05-16T07:18:36.905Z,7.13
2023-05-16T07:21:04.962Z,9.95
2023-05-16T07:23:32.965Z,13.85
2023-05-16T07:26:03.834Z,8.15
2023-05-16T07:28:31.681Z,8.73
2023-05-16T07:31:00.475Z,10.00
2023-05-16T07:33:28.575Z,8.82
2023-05-16T07:36:08.047Z,10.10
2023-05-16T07:38:43.890Z,15.70
2023-05-16T07:41:13.222Z,10.07
2023-05-16T07:43:41.313Z,9.93
2023-05-16T07:46:09.246Z,6.65
2023-05-16T07:48:37.159Z,7.95
2023-05-16T07:51:05.213Z,14.75
2023-05-16T07:53:33.220Z,10.18
2023-05-16T07:56:01.413Z,9.18
2023-05-16T07:58:30.892Z,9.02
2023-05-16T08:00:58.887Z,6.47
2023-05-16T08:03:27.048Z,10.18
2023-05-16T08:05:55.033Z,10.75
2023-05-16T08:08:22.940Z,8.38
2023-05-16T08:10:50.946Z,7.45
2023-05-16T08:13:18.960Z,6.20
2023-05-16T08:15:48.250Z,8.32
2023-05-16T08:18:18.788Z,7.30
2023-05-16T08:20:47.893Z,7.90
2023-05-16T08:23:15.906Z,6.45
2023-05-16T08:25:44.040Z,9.73
2023-05-16T08:28:11.937Z,8.68
2023-05-16T08:30:42.439Z,9.82
2023-05-16T08:33:12.309Z,5.28
2023-05-16T08:35:43.988Z,6.50
2023-05-16T08:38:12.098Z,5.65
2023-05-16T08:40:42.829Z,8.18
2023-05-16T08:43:10.758Z,9.30
2023-05-16T08:45:38.816Z,9.68
2023-05-16T08:48:10.390Z,12.40
2023-05-16T08:50:39.957Z,7.65
2023-05-16T08:53:09.642Z,9.13
2023-05-16T08:55:38.146Z,7.75
2023-05-16T08:58:06.060Z,10.18
2023-05-16T09:00:34.111Z,5.45
2023-05-16T09:03:02.519Z,5.97
2023-05-16T09:05:31.219Z,8.27
2023-05-16T09:08:00.854Z,8.98
2023-05-16T09:10:28.704Z,7.82
2023-05-16T09:12:56.724Z,5.32
2023-05-16T09:15:24.527Z,5.55
2023-05-16T09:17:52.732Z,6.05
2023-05-16T09:20:21.866Z,11.18
2023-05-16T09:22:56.334Z,8.27
2023-05-16T09:25:31.002Z,6.25
2023-05-16T09:28:01.697Z,4.82
2023-05-16T09:30:31.658Z,7.43
2023-05-16T09:33:00.413Z,10.63
2023-05-16T09:35:42.952Z,8.15
2023-05-16T09:40:44.540Z,7.25
2023-05-16T09:43:16.790Z,9.60
2023-05-16T09:45:47.836Z,6.35
2023-05-16T09:48:17.049Z,4.82
2023-05-16T09:50:49.870Z,10.27
2023-05-16T09:53:17.797Z,4.72
2023-05-16T09:55:47.051Z,3.22
2023-05-16T09:58:18.816Z,9.65
2023-05-16T10:00:47.116Z,5.95
2023-05-16T10:03:16.702Z,8.50
2023-05-16T10:05:44.829Z,12.02
2023-05-16T10:08:13.592Z,4.85
2023-05-16T10:10:44.106Z,8.07
2023-05-16T10:13:14.372Z,5.65
2023-05-16T10:15:46.672Z,12.80
2023-05-16T10:18:15.784Z,4.22
2023-05-16T10:20:46.589Z,9.85
2023-05-16T10:23:18.956Z,9.15
2023-05-16T10:25:48.000Z,8.35
2023-05-16T10:28:17.945Z,5.60
2023-05-16T10:30:47.676Z,3.97
2023-05-16T10:33:20.294Z,6.53
2023-05-16T10:35:48.816Z,3.85
2023-05-16T10:38:19.648Z,4.85
2023-05-16T10:40:49.276Z,7.80
2023-05-16T10:43:26.914Z,4.72
2023-05-16T10:45:58.873Z,4.05
2023-05-16T10:48:31.533Z,9.13
2023-05-16T10:50:59.518Z,3.50
2023-05-16T10:53:31.936Z,5.32
2023-05-16T10:56:08.984Z,10.88
2023-05-16T10:58:48.813Z,7.13
2023-05-16T11:01:24.530Z,6.05
2023-05-16T11:04:06.915Z,10.93
2023-05-16T11:06:36.150Z,4.53
2023-05-16T11:09:10.140Z,7.82
2023-05-16T11:11:49.057Z,4.38
2023-05-16T11:14:23.661Z,6.10
2023-05-16T11:16:52.916Z,6.93
2023-05-16T11:19:32.153Z,6.80
2023-05-16T11:22:07.412Z,7.95
2023-05-16T11:24:36.350Z,4.70
2023-05-16T11:27:07.944Z,3.95
2023-05-16T11:29:37.751Z,5.07
2023-05-16T11:32:06.850Z,3.78
2023-05-16T11:34:39.658Z,6.30
2023-05-16T11:37:07.803Z,5.37
2023-05-16T11:39:37.815Z,6.68
2023-05-16T11:42:06.020Z,4.68
2023-05-16T11:44:33.938Z,4.90
2023-05-16T11:47:03.981Z,6.70
2023-05-16T11:49:32.343Z,6.72
2023-05-16T11:52:00.363Z,4.43
2023-05-16T11:54:28.472Z,4.95
2023-05-16T11:56:56.754Z,7.85
2023-05-16T11:59:25.502Z,6.78
2023-05-16T12:01:54.140Z,9.25
2023-05-16T12:04:24.299Z,5.22
2023-05-16T12:07:04.254Z,6.63
2023-05-16T12:09:32.176Z,9.30
2023-05-16T12:12:00.640Z,7.13
2023-05-16T12:14:28.655Z,5.60
2023-05-16T12:16:56.777Z,7.43
2023-05-16T12:19:26.481Z,7.05
2023-05-16T12:21:55.428Z,8.05
2023-05-16T12:24:23.379Z,6.50
2023-05-16T12:26:54.817Z,5.68
2023-05-16T12:29:25.186Z,7.55
2023-05-16T12:31:55.070Z,6.13
2023-05-16T12:34:23.400Z,7.90
2023-05-16T12:37:02.059Z,5.32
2023-05-16T12:39:38.490Z,5.25
2023-05-16T12:42:07.437Z,10.75
2023-05-16T12:44:38.235Z,9.80
2023-05-16T12:47:13.507Z,5.72
2023-05-16T12:49:46.329Z,9.18
2023-05-16T12:52:20.701Z,4.40
2023-05-16T12:54:49.396Z,5.13
2023-05-16T12:57:17.207Z,10.23
2023-05-16T12:59:45.121Z,4.93
2023-05-16T13:02:13.088Z,5.13
2023-05-16T13:04:41.727Z,8.70
2023-05-16T13:07:09.591Z,8.50
2023-05-16T13:09:38.834Z,7.85
2023-05-16T13:12:07.568Z,9.48
2023-05-16T13:14:35.444Z,6.55
2023-05-16T13:17:04.611Z,4.28
2023-05-16T13:19:32.684Z,4.15
2023-05-16T13:22:00.632Z,5.97
2023-05-16T13:24:28.725Z,5.20
2023-05-16T13:26:59.603Z,6.53
2023-05-16T13:29:27.657Z,5.03
2023-05-16T13:31:55.838Z,3.05
2023-05-16T13:34:23.857Z,4.10
2023-05-16T13:36:54.373Z,11.35
2023-05-16T13:39:23.325Z,6.30
2023-05-16T13:41:51.578Z,2.75
2023-05-16T13:44:22.533Z,7.00
2023-05-16T13:46:50.746Z,6.35
2023-05-16T13:49:18.792Z,6.45
2023-05-16T13:51:47.501Z,4.18
2023-05-16T13:54:15.330Z,3.83
2023-05-16T13:56:43.350Z,5.07
2023-05-16T13:59:14.234Z,3.78
2023-05-16T14:01:47.755Z,7.03
2023-05-16T14:04:15.970Z,6.07
2023-05-16T14:06:43.883Z,12.00
2023-05-16T14:09:13.232Z,7.20
2023-05-16T14:11:41.131Z,6.80
2023-05-16T14:14:08.975Z,8.68
2023-05-16T14:16:37.371Z,3.92
2023-05-16T14:19:06.707Z,6.90
2023-05-16T14:21:34.682Z,8.13
2023-05-16T14:24:02.655Z,5.05
2023-05-16T14:26:32.258Z,5.85
2023-05-16T14:29:00.918Z,6.78
2023-05-16T14:31:28.908Z,5.32
2023-05-16T14:33:57.124Z,3.08
2023-05-16T14:36:26.443Z,3.70
2023-05-16T14:38:54.250Z,6.75
2023-05-16T14:41:22.856Z,6.25
2023-05-16T14:43:51.040Z,8.02
2023-05-16T14:46:18.970Z,7.05
2023-05-16T14:48:47.011Z,3.50
2023-05-16T14:51:15.209Z,3.80
2023-05-16T14:53:46.936Z,5.22
2023-05-16T14:56:15.016Z,6.82
2023-05-16T14:58:43.073Z,4.35
2023-05-16T15:01:11.137Z,5.03
2023-05-16T15:06:10.543Z,5.10
2023-05-16T15:08:38.832Z,5.38
2023-05-16T15:11:08.107Z,7.63
2023-05-16T15:13:35.938Z,2.92
2023-05-16T15:16:04.247Z,4.93
2023-05-16T15:18:32.125Z,8.98
2023-05-16T15:21:00.127Z,6.32
2023-05-16T15:23:28.350Z,6.80
2023-05-16T15:25:56.263Z,6.32
2023-05-16T15:28:25.449Z,4.07
2023-05-16T15:30:53.473Z,2.97
2023-05-16T15:33:21.304Z,7.32
2023-05-16T15:35:49.312Z,2.97
2023-05-16T15:38:17.346Z,2.97
2023-05-16T15:40:45.151Z,3.80
2023-05-16T15:43:12.940Z,4.25
2023-05-16T15:45:44.947Z,5.55
2023-05-16T15:48:13.086Z,4.85
2023-05-16T15:50:41.930Z,4.28
2023-05-16T15:53:09.841Z,5.15
2023-05-16T15:55:38.108Z,8.20
2023-05-16T15:58:06.224Z,7.88
2023-05-16T16:00:34.143Z,5.35
2023-05-16T16:03:03.423Z,6.20
2023-05-16T16:05:31.269Z,6.07
2023-05-16T16:07:59.104Z,3.85
2023-05-16T16:10:27.281Z,8.38
2023-05-16T16:13:01.718Z,6.25
2023-05-16T16:15:32.820Z,7.00
2023-05-16T16:18:03.028Z,9.10
2023-05-16T16:20:31.010Z,9.43
2023-05-16T16:22:59.079Z,7.65
2023-05-16T16:25:27.313Z,7.97
2023-05-16T16:27:56.058Z,8.65
2023-05-16T16:30:23.961Z,7.18
2023-05-16T16:32:52.076Z,13.18
2023-05-16T16:35:22.512Z,7.78
2023-05-16T16:38:02.475Z,12.05
2023-05-16T16:40:34.439Z,5.45
2023-05-16T16:43:02.585Z,11.00
2023-05-16T16:45:30.808Z,9.77
2023-05-16T16:47:59.045Z,9.32
2023-05-16T16:50:28.248Z,5.72
2023-05-16T16:52:56.185Z,17.90
2023-05-16T16:55:24.002Z,10.60
2023-05-16T16:57:51.882Z,12.15
2023-05-16T17:00:20.806Z,8.95
2023-05-16T17:02:48.747Z,11.50
2023-05-16T17:05:16.664Z,13.13
2023-05-16T17:07:45.924Z,12.40
2023-05-16T17:10:13.812Z,11.77
2023-05-16T17:12:48.924Z,7.97
2023-05-16T17:15:17.418Z,12.52
2023-05-16T17:17:45.628Z,13.70
2023-05-16T17:20:14.440Z,9.75
2023-05-16T17:22:42.242Z,13.77
2023-05-16T17:25:11.818Z,11.50
2023-05-16T17:27:40.686Z,10.90
2023-05-16T17:30:10.536Z,14.40
2023-05-16T17:32:40.015Z,10.27
2023-05-16T17:35:08.347Z,9.15
2023-05-16T17:37:36.206Z,12.80
2023-05-16T17:40:05.869Z,20.90
2023-05-16T17:42:35.172Z,19.67
2023-05-16T17:45:04.962Z,12.50
2023-05-16T17:47:33.143Z,14.18
2023-05-16T17:50:01.216Z,8.93
2023-05-16T17:52:29.406Z,9.05
2023-05-16T17:54:57.299Z,9.38
2023-05-16T17:57:25.346Z,10.82
2023-05-16T17:59:54.735Z,8.88
2023-05-16T18:02:22.638Z,9.77
2023-05-16T18:04:50.483Z,8.25
2023-05-16T18:07:18.432Z,6.75
2023-05-16T18:09:46.389Z,12.10
2023-05-16T18:12:14.989Z,14.13
2023-05-16T18:14:45.260Z,7.63
2023-05-16T18:17:14.811Z,11.00
2023-05-16T18:19:42.906Z,8.93
2023-05-16T18:22:12.437Z,11.82
2023-05-16T18:24:40.752Z,12.05
2023-05-16T18:27:08.546Z,11.00
2023-05-16T18:29:36.311Z,8.77
2023-05-16T18:32:04.336Z,12.02
2023-05-16T18:34:34.085Z,10.55
2023-05-16T18:37:02.017Z,9.77
2023-05-16T18:39:29.969Z,8.82
2023-05-16T18:41:57.974Z,9.85
2023-05-16T18:44:25.766Z,11.40
2023-05-16T18:46:53.613Z,12.02
2023-05-16T18:49:21.697Z,10.80
2023-05-16T18:51:51.261Z,13.27
2023-05-16T18:54:20.607Z,7.60
2023-05-16T18:56:49.472Z,12.88
2023-05-16T18:59:18.784Z,12.70
2023-05-16T19:01:47.206Z,16.08
2023-05-16T19:04:15.225Z,14.80
2023-05-16T19:06:43.165Z,13.73
2023-05-16T19:09:12.371Z,14.90
2023-05-16T19:11:40.310Z,12.05
2023-05-16T19:14:08.721Z,14.98
2023-05-16T19:16:36.524Z,13.32
2023-05-16T19:19:05.298Z,12.48
2023-05-16T19:21:33.236Z,9.82
2023-05-16T19:24:01.239Z,11.35
2023-05-16T19:26:31.014Z,8.80
2023-05-16T19:28:59.142Z,12.68
2023-05-16T19:31:26.999Z,18.70
2023-05-16T19:33:54.979Z,16.10
2023-05-16T19:36:22.941Z,12.95
2023-05-16T19:38:50.771Z,18.65
2023-05-16T19:41:18.633Z,14.93
2023-05-16T19:43:47.843Z,13.10
2023-05-16T19:46:15.642Z,12.02
2023-05-16T19:48:43.452Z,19.15
2023-05-16T19:51:11.414Z,14.88
2023-05-16T19:53:39.209Z,12.30
2023-05-16T19:56:07.081Z,14.65
2023-05-16T19:58:34.941Z,15.02
2023-05-16T20:01:04.350Z,13.48
2023-05-16T20:03:32.575Z,10.93
2023-05-16T20:06:00.476Z,10.82
2023-05-16T20:08:28.457Z,20.67
2023-05-16T20:10:57.324Z,11.65
2023-05-16T20:13:26.275Z,7.10
2023-05-16T20:15:54.103Z,13.63
2023-05-16T20:18:23.679Z,15.30
2023-05-16T20:20:51.513Z,17.08
2023-05-16T20:23:19.578Z,11.80
2023-05-16T20:25:47.442Z,13.75
2023-05-16T20:28:15.325Z,14.05
2023-05-16T20:30:43.262Z,11.60
2023-05-16T20:33:11.225Z,14.38
2023-05-16T20:35:40.528Z,27.98
2023-05-16T20:38:08.748Z,15.15
2023-05-16T20:40:36.915Z,11.93
2023-05-16T20:43:04.826Z,10.18
2023-05-16T20:45:32.618Z,8.45
2023-05-16T20:48:00.705Z,12.13
2023-05-16T20:50:28.704Z,11.85
2023-05-16T20:52:58.060Z,7.28
2023-05-16T20:55:26.438Z,13.30
2023-05-16T20:57:54.447Z,11.50
2023-05-16T21:00:22.456Z,11.75
2023-05-16T21:02:50.320Z,28.30
2023-05-16T21:05:25.188Z,8.45
2023-05-16T21:07:53.595Z,15.82
2023-05-16T21:10:22.793Z,13.82
2023-05-16T21:12:50.828Z,15.73
2023-05-16T21:15:19.883Z,15.80
2023-05-16T21:17:49.691Z,22.80
2023-05-16T21:20:17.745Z,17.90
2023-05-16T21:22:45.657Z,13.88
2023-05-16T21:25:13.438Z,17.83
2023-05-16T21:27:44.321Z,19.02
2023-05-16T21:30:13.311Z,21.08
2023-05-16T21:32:41.250Z,15.00
2023-05-16T21:35:09.770Z,9.98
2023-05-16T21:37:37.641Z,15.20
2023-05-16T21:40:06.454Z,15.70
2023-05-16T21:42:34.366Z,19.40
2023-05-16T21:45:03.562Z,14.85
2023-05-16T21:47:34.435Z,14.35
2023-05-16T21:50:02.193Z,17.75
2023-05-16T21:52:30.120Z,17.38
2023-05-16T21:54:57.953Z,13.20
2023-05-16T21:57:25.814Z,13.15
2023-05-16T21:59:53.667Z,16.20
2023-05-16T22:02:23.501Z,13.93
2023-05-16T22:04:52.341Z,14.18
2023-05-16T22:07:20.518Z,13.65
2023-05-16T22:09:50.826Z,9.95
2023-05-16T22:12:21.662Z,12.60
2023-05-16T22:14:50.100Z,16.85
2023-05-16T22:17:19.276Z,13.02
2023-05-16T22:19:48.800Z,9.88
2023-05-16T22:22:16.966Z,13.85
2023-05-16T22:24:44.753Z,16.75
2023-05-16T22:27:12.574Z,18.25
2023-05-16T22:29:40.666Z,16.45
2023-05-16T22:32:09.295Z,16.30
2023-05-16T22:34:39.626Z,20.85
2023-05-16T22:37:09.588Z,16.80
2023-05-16T22:39:38.041Z,10.98
2023-05-16T22:42:06.551Z,6.18
2023-05-16T22:44:34.290Z,13.18
2023-05-16T22:47:02.068Z,10.15
2023-05-16T22:49:29.831Z,22.30
2023-05-16T22:51:57.604Z,14.85
2023-05-16T22:54:26.840Z,20.15
2023-05-16T22:56:54.762Z,19.20
2023-05-16T22:59:22.597Z,18.85
2023-05-16T23:01:50.476Z,12.85
2023-05-16T23:04:18.242Z,21.10
2023-05-16T23:06:46.097Z,19.05
2023-05-16T23:09:13.995Z,16.15
2023-05-16T23:11:43.224Z,20.30
2023-05-16T23:14:11.162Z,21.45
2023-05-16T23:16:38.966Z,16.85
2023-05-16T23:19:09.335Z,24.92
2023-05-16T23:21:37.586Z,21.88
2023-05-16T23:24:05.568Z,17.90
2023-05-16T23:26:33.341Z,11.77
2023-05-16T23:29:02.582Z,18.00
2023-05-16T23:31:30.671Z,15.65
2023-05-16T23:33:58.476Z,15.07
2023-05-16T23:36:26.351Z,15.73
2023-05-16T23:38:54.221Z,13.30
2023-05-16T23:41:22.117Z,16.88
2023-05-16T23:43:49.956Z,16.67
2023-05-16T23:46:19.139Z,19.92
2023-05-16T23:48:47.025Z,17.20
2023-05-16T23:51:14.822Z,17.98
2023-05-16T23:53:42.780Z,21.23
2023-05-16T23:56:10.654Z,15.80
2023-05-16T23:58:38.441Z,15.23
